Pagrindinis puslapis
METAR-TAF:

METAR-TAF

Oro uostai :

Sohagas, Egiptas

platuma: 26-20-25N, ilguma: 31-44-20E, Aukštis: 70 m

Dabartinis oras

Ataskaita buvo paskelbta 56 minutes, ne 06:00 UTC
Vėjas 8 kt iš Šiaurės Vakarų
Temperatūra 35°C
Drėgmė 22%
Slėgis 1009 hPa
Matomumas 10 km arba daugiau
nėra debesų žemiau 1500 m ir nėra kamuolinių lietaus debesų

METAR: HESG 240600Z 32008KT CAVOK 35/10 Q1009 NOSIG

Laikas: 08:56 (06:56 UTC)

Prognozė

Ataskaita buvo paskelbta 1 valandą ir 56 minutes, ne 05:00 UTC
Prognozė galioja nuo 24 metu 06 UTC su 25 metu 12 UTC
Vėjas 13 kt iš Šiaurės/Šiaurės Vakarų
Matomumas 10 km arba daugiau
nėra debesų žemiau 1500 m ir nėra kamuolinių lietaus debesų
Laikinai
nuo 24 metu 10 UTC su 24 metu 18 UTC
Matomumas: 4000 m
Smėlis,

TAF: HESG 240500Z 2406/2512 34013KT CAVOK TEMPO 2410/2418 4000 SA NSC

Orai ataskaitas ir orų prognozės (METAR, TAF).

turimą stotys yra geltonos ir raudonos taškus žemėlapyje.

Perkelti pele per norėdami pamatyti stoties vardą.

Tada spustelėkite, norėdami matyti oro stebėjimo ir prognozės.

Norėdami pakeisti žemėlapį: spustelėkite ant žalios mygtukų su juodo kryžiaus žemyn,; žalią mygtuką su brūkšneliu, jei norite nutolinti; arba žalių rodyklių gretimoms žemėlapius.


METAR-TAF: